createdAt,value
2023-01-23T00:00:19.464Z,64.75
2023-01-23T00:03:21.378Z,67.73
2023-01-23T00:06:18.217Z,65.15
2023-01-23T00:09:11.215Z,62.85
2023-01-23T00:12:05.436Z,60.99
2023-01-23T00:14:58.656Z,57.74
2023-01-23T00:17:42.655Z,56.35
2023-01-23T00:20:30.708Z,57.40
2023-01-23T00:23:23.534Z,58.57
2023-01-23T00:26:18.722Z,59.69
2023-01-23T00:29:11.683Z,64.12
2023-01-23T00:32:05.117Z,67.03
2023-01-23T00:34:58.772Z,65.69
2023-01-23T00:37:52.885Z,64.14
2023-01-23T00:40:38.391Z,63.05
2023-01-23T00:43:24.348Z,61.85
2023-01-23T00:46:17.529Z,61.13
2023-01-23T00:49:10.028Z,60.48
2023-01-23T00:52:02.963Z,59.90
2023-01-23T00:54:56.114Z,57.57
2023-01-23T00:57:48.861Z,57.10
2023-01-23T01:00:42.295Z,58.33
2023-01-23T01:03:35.216Z,59.03
2023-01-23T01:06:29.986Z,62.33
2023-01-23T01:09:22.957Z,67.64
2023-01-23T01:12:16.528Z,65.93
2023-01-23T01:15:12.192Z,63.41
2023-01-23T01:18:06.544Z,61.55
2023-01-23T01:20:52.759Z,58.12
2023-01-23T01:23:40.278Z,56.44
2023-01-23T01:26:33.556Z,57.25
2023-01-23T01:29:26.886Z,58.46
2023-01-23T01:32:19.732Z,59.62
2023-01-23T01:35:14.960Z,63.78
2023-01-23T01:38:00.682Z,66.95
2023-01-23T01:40:52.831Z,65.57
2023-01-23T01:43:46.417Z,63.26
2023-01-23T01:46:41.241Z,61.41
2023-01-23T01:49:35.529Z,60.07
2023-01-23T01:52:23.607Z,57.65
2023-01-23T01:55:16.698Z,56.39
2023-01-23T01:58:02.267Z,57.41
2023-01-23T02:00:55.489Z,58.28
2023-01-23T02:03:51.752Z,59.63
2023-01-23T02:06:38.731Z,63.58
2023-01-23T02:09:33.787Z,68.19
2023-01-23T02:12:28.330Z,66.57
2023-01-23T02:15:24.521Z,64.27
2023-01-23T02:18:10.320Z,62.87
2023-01-23T02:21:07.585Z,61.51
2023-01-23T02:24:19.744Z,60.47
2023-01-23T02:27:12.865Z,57.22
2023-01-23T02:29:58.776Z,56.63
2023-01-23T02:32:51.766Z,56.88
2023-01-23T02:35:44.629Z,57.75
2023-01-23T02:38:42.409Z,59.17
2023-01-23T02:41:37.451Z,63.59
2023-01-23T02:44:32.094Z,67.68
2023-01-23T02:47:25.517Z,67.19
2023-01-23T02:50:19.211Z,65.01
2023-01-23T02:53:13.611Z,63.31
2023-01-23T02:56:09.042Z,62.27
2023-01-23T02:59:20.190Z,61.31
2023-01-23T03:02:04.338Z,60.71
2023-01-23T03:04:57.300Z,57.96
2023-01-23T03:07:50.208Z,56.66
2023-01-23T03:10:34.572Z,56.92
2023-01-23T03:13:27.496Z,57.96
2023-01-23T03:16:21.683Z,59.74
2023-01-23T03:19:14.586Z,63.97
2023-01-23T03:22:09.503Z,67.75
2023-01-23T03:24:57.935Z,66.75
2023-01-23T03:27:52.320Z,65.25
2023-01-23T03:30:45.356Z,64.51
2023-01-23T03:33:31.580Z,63.54
2023-01-23T03:36:18.407Z,62.33
2023-01-23T03:39:28.929Z,61.47
2023-01-23T03:42:21.977Z,61.07
2023-01-23T03:45:16.287Z,60.38
2023-01-23T03:48:09.813Z,60.06
2023-01-23T03:50:56.776Z,60.14
2023-01-23T03:53:49.918Z,60.30
2023-01-23T03:56:36.587Z,60.13
2023-01-23T03:59:22.724Z,60.14
2023-01-23T04:02:15.867Z,60.67
2023-01-23T04:05:01.804Z,60.16
2023-01-23T04:07:54.770Z,59.51
2023-01-23T04:10:48.532Z,57.34
2023-01-23T04:13:41.583Z,56.00
2023-01-23T04:16:34.875Z,56.74
2023-01-23T04:19:21.227Z,58.63
2023-01-23T04:22:14.153Z,63.12
2023-01-23T04:25:06.743Z,66.45
2023-01-23T04:27:59.753Z,65.14
2023-01-23T04:30:53.686Z,64.51
2023-01-23T04:33:49.641Z,63.66
2023-01-23T04:36:44.000Z,62.67
2023-01-23T04:39:37.049Z,62.90
2023-01-23T04:42:23.710Z,61.73
2023-01-23T04:45:28.733Z,60.40
2023-01-23T04:48:22.537Z,57.82
2023-01-23T04:51:15.649Z,56.58
2023-01-23T04:54:10.247Z,57.79
2023-01-23T04:57:03.515Z,58.86
2023-01-23T04:59:58.121Z,60.17
2023-01-23T05:02:47.153Z,65.44
2023-01-23T05:05:40.616Z,69.30
2023-01-23T05:08:33.690Z,66.66
2023-01-23T05:11:29.420Z,64.64
2023-01-23T05:14:24.472Z,63.10
2023-01-23T05:17:02.825Z,61.53
2023-01-23T05:19:52.581Z,60.32
2023-01-23T05:22:39.589Z,57.12
2023-01-23T05:25:27.420Z,55.83
2023-01-23T05:28:22.225Z,56.64
2023-01-23T05:31:15.070Z,58.21
2023-01-23T05:34:08.202Z,59.49
2023-01-23T05:37:01.427Z,64.63
2023-01-23T05:39:54.883Z,67.16
2023-01-23T05:42:47.845Z,64.46
2023-01-23T05:45:46.702Z,61.92
2023-01-23T05:48:39.609Z,57.91
2023-01-23T05:51:34.130Z,56.37
2023-01-23T05:54:26.234Z,56.94
2023-01-23T05:57:19.288Z,58.29
2023-01-23T06:00:15.623Z,59.96
2023-01-23T06:03:08.853Z,65.83
2023-01-23T06:06:05.276Z,68.45
2023-01-23T06:08:51.058Z,65.84
2023-01-23T06:11:43.949Z,63.63
2023-01-23T06:14:36.138Z,62.11
2023-01-23T06:17:30.634Z,60.62
2023-01-23T06:20:23.725Z,57.23
2023-01-23T06:23:16.737Z,55.75
2023-01-23T06:26:10.659Z,57.00
2023-01-23T06:29:03.430Z,58.92
2023-01-23T06:31:56.369Z,64.08
2023-01-23T06:34:49.308Z,66.62
2023-01-23T06:37:42.552Z,64.39
2023-01-23T06:40:36.188Z,61.97
2023-01-23T06:43:29.866Z,60.45
2023-01-23T06:46:23.001Z,57.18
2023-01-23T06:49:15.995Z,56.49
2023-01-23T06:52:09.367Z,57.86
2023-01-23T06:55:02.052Z,59.57
2023-01-23T06:57:55.751Z,65.37
2023-01-23T07:00:48.781Z,67.63
2023-01-23T07:03:42.142Z,65.33
2023-01-23T07:06:35.271Z,63.00
2023-01-23T07:09:29.075Z,61.28
2023-01-23T07:12:25.388Z,57.91
2023-01-23T07:15:13.973Z,56.43
2023-01-23T07:18:07.045Z,57.81
2023-01-23T07:21:02.060Z,60.00
2023-01-23T07:23:54.808Z,65.48
2023-01-23T07:26:37.790Z,67.50
2023-01-23T07:29:31.177Z,65.76
2023-01-23T07:32:24.022Z,63.94
2023-01-23T07:35:16.962Z,62.04
2023-01-23T07:38:10.043Z,60.83
2023-01-23T07:41:03.506Z,59.98
2023-01-23T07:43:50.423Z,57.63
2023-01-23T07:46:43.816Z,56.42
2023-01-23T07:49:36.786Z,57.71
2023-01-23T07:52:29.935Z,59.42
2023-01-23T07:55:23.019Z,64.83
2023-01-23T07:58:16.213Z,67.12
2023-01-23T08:01:17.594Z,64.87
2023-01-23T08:04:10.723Z,62.77
2023-01-23T08:07:03.971Z,60.53
2023-01-23T08:09:57.109Z,57.17
2023-01-23T08:12:54.591Z,56.75
2023-01-23T08:15:48.431Z,58.64
2023-01-23T08:18:41.614Z,60.74
2023-01-23T08:21:34.945Z,66.06
2023-01-23T08:24:25.343Z,68.06
2023-01-23T08:27:15.259Z,65.48
2023-01-23T08:30:12.849Z,63.11
2023-01-23T08:32:58.336Z,61.87
2023-01-23T08:35:54.499Z,61.40
2023-01-23T08:38:47.678Z,60.55
2023-01-23T08:41:41.164Z,60.14
2023-01-23T08:44:34.424Z,57.94
2023-01-23T08:47:27.670Z,58.27
2023-01-23T08:50:20.350Z,60.48
2023-01-23T08:53:13.964Z,65.56
2023-01-23T08:56:09.736Z,67.12
2023-01-23T08:59:02.679Z,64.99
2023-01-23T09:01:55.647Z,63.43
2023-01-23T09:04:42.520Z,62.37
2023-01-23T09:07:38.149Z,61.70
2023-01-23T09:10:30.996Z,60.96
2023-01-23T09:13:23.872Z,60.64
2023-01-23T09:16:17.395Z,60.05
2023-01-23T09:19:02.642Z,59.72
2023-01-23T09:21:58.037Z,58.10
2023-01-23T09:24:50.937Z,58.17
2023-01-23T09:27:44.024Z,60.01
2023-01-23T09:30:37.286Z,65.20
2023-01-23T09:33:30.511Z,67.05
2023-01-23T09:36:37.541Z,65.05
2023-01-23T09:39:33.507Z,63.40
2023-01-23T09:42:34.638Z,62.03
2023-01-23T09:45:24.635Z,61.00
2023-01-23T09:48:28.465Z,60.10
2023-01-23T09:51:20.327Z,57.87
2023-01-23T09:54:23.782Z,56.89
2023-01-23T09:57:22.555Z,58.10
2023-01-23T10:00:23.870Z,59.97
2023-01-23T10:03:18.250Z,65.51
2023-01-23T10:06:21.811Z,66.88
2023-01-23T10:09:32.194Z,64.39
2023-01-23T10:12:37.298Z,62.37
2023-01-23T10:15:41.969Z,61.06
2023-01-23T10:18:38.681Z,60.15
2023-01-23T10:21:38.572Z,59.79
2023-01-23T10:24:47.860Z,57.63
2023-01-23T10:27:44.471Z,57.06
2023-01-23T10:30:39.782Z,59.23
2023-01-23T10:33:36.082Z,63.71
2023-01-23T10:36:47.636Z,65.59
2023-01-23T10:39:56.119Z,63.40
2023-01-23T10:42:49.271Z,61.88
2023-01-23T10:45:43.578Z,61.38
2023-01-23T10:48:43.767Z,60.00
2023-01-23T10:51:48.685Z,56.49
2023-01-23T10:54:49.663Z,56.15
2023-01-23T10:58:06.948Z,58.24
2023-01-23T11:00:57.281Z,59.92
2023-01-23T11:03:50.384Z,60.32
2023-01-23T11:06:43.159Z,66.71
2023-01-23T11:09:56.762Z,68.59
2023-01-23T11:12:54.206Z,65.76
2023-01-23T11:15:51.302Z,63.39
2023-01-23T11:18:44.392Z,61.62
2023-01-23T11:21:53.423Z,60.38
2023-01-23T11:24:46.503Z,57.04
2023-01-23T11:27:40.060Z,56.12
2023-01-23T11:30:40.047Z,58.21
2023-01-23T11:33:33.591Z,59.49
2023-01-23T11:36:45.837Z,65.27
2023-01-23T11:39:51.643Z,66.63
2023-01-23T11:42:47.799Z,63.69
2023-01-23T11:45:47.792Z,61.74
2023-01-23T11:48:52.637Z,60.12
2023-01-23T11:51:55.957Z,55.95
2023-01-23T11:55:05.105Z,55.39
2023-01-23T11:58:04.029Z,56.39
2023-01-23T12:01:08.825Z,58.30
2023-01-23T12:04:33.426Z,59.87
2023-01-23T12:07:22.049Z,65.89
2023-01-23T12:10:25.455Z,67.38
2023-01-23T12:13:37.596Z,63.91
2023-01-23T12:16:41.276Z,61.79
2023-01-23T12:20:03.136Z,60.81
2023-01-23T12:23:08.279Z,57.13
2023-01-23T12:25:57.512Z,56.32
2023-01-23T12:29:07.263Z,57.44
2023-01-23T12:32:05.997Z,59.08
2023-01-23T12:35:05.610Z,64.05
2023-01-23T12:38:14.303Z,66.58
2023-01-23T12:41:10.658Z,64.07
2023-01-23T12:44:03.373Z,61.82
2023-01-23T12:47:00.392Z,60.15
2023-01-23T12:49:57.953Z,56.84
2023-01-23T12:52:55.140Z,55.86
2023-01-23T12:55:59.685Z,57.20
2023-01-23T12:58:49.709Z,58.72
2023-01-23T13:01:56.822Z,64.03
2023-01-23T13:05:06.697Z,66.58
2023-01-23T13:08:04.376Z,64.12
2023-01-23T13:11:28.735Z,62.00
2023-01-23T13:14:32.851Z,60.51
2023-01-23T13:17:39.274Z,57.03
2023-01-23T13:20:53.723Z,56.22
2023-01-23T13:23:46.852Z,57.87
2023-01-23T13:26:39.928Z,59.97
2023-01-23T13:29:49.365Z,65.00
2023-01-23T13:32:43.736Z,67.53
2023-01-23T13:35:56.373Z,65.45
2023-01-23T13:39:25.481Z,63.37
2023-01-23T13:42:46.765Z,62.04
2023-01-23T13:45:37.152Z,61.26
2023-01-23T14:23:26.520Z,59.58
2023-01-23T14:26:16.751Z,64.91
2023-01-23T14:29:24.156Z,67.55
2023-01-23T14:32:25.574Z,66.22
2023-01-23T14:35:25.263Z,64.72
2023-01-23T14:38:24.683Z,63.22
2023-01-23T14:41:28.013Z,61.89
2023-01-23T14:44:27.502Z,61.23
2023-01-23T14:47:15.651Z,60.14
2023-01-23T14:50:17.254Z,57.89
2023-01-23T14:53:07.120Z,57.14
2023-01-23T14:56:01.985Z,58.51
2023-01-23T14:58:53.581Z,59.79
2023-01-23T15:01:56.198Z,64.36
2023-01-23T15:04:33.818Z,66.81
2023-01-23T15:07:25.823Z,65.36
2023-01-23T15:10:25.501Z,63.74
2023-01-23T15:13:14.291Z,62.34
2023-01-23T15:16:19.711Z,61.48
2023-01-23T15:19:24.423Z,61.15
2023-01-23T15:22:09.110Z,60.58
2023-01-23T15:25:20.952Z,60.16
2023-01-23T15:28:40.590Z,59.97
2023-01-23T15:31:32.300Z,57.88
2023-01-23T15:34:26.345Z,57.77
2023-01-23T15:37:25.973Z,59.01
2023-01-23T15:40:27.703Z,63.52
2023-01-23T15:43:08.809Z,66.37
2023-01-23T15:46:01.844Z,65.70
2023-01-23T15:48:40.362Z,64.54
2023-01-23T15:51:33.600Z,63.66
2023-01-23T15:54:21.305Z,62.56
2023-01-23T15:57:07.664Z,62.46
2023-01-23T15:59:57.206Z,62.10
2023-01-23T16:02:39.373Z,62.56
2023-01-23T16:05:17.359Z,62.78
2023-01-23T16:07:57.741Z,62.74
2023-01-23T16:10:51.371Z,62.73
2023-01-23T16:13:44.496Z,62.54
2023-01-23T16:16:36.497Z,62.23
2023-01-23T16:19:29.273Z,61.70
2023-01-23T16:22:26.989Z,61.36
2023-01-23T16:25:41.895Z,61.50
2023-01-23T16:28:35.858Z,61.40
2023-01-23T16:31:15.201Z,61.67
2023-01-23T16:34:01.066Z,61.42
2023-01-23T16:36:36.610Z,61.32
2023-01-23T16:39:24.659Z,61.43
2023-01-23T16:42:23.612Z,61.95
2023-01-23T16:45:23.256Z,61.59
2023-01-23T16:48:01.428Z,61.43
2023-01-23T16:50:44.006Z,61.89
2023-01-23T16:53:33.064Z,62.38
2023-01-23T16:56:30.949Z,62.83
2023-01-23T16:59:29.611Z,63.19
2023-01-23T17:02:29.089Z,65.82
2023-01-23T17:05:22.591Z,65.02
2023-01-23T17:08:12.601Z,63.40
2023-01-23T17:10:46.962Z,61.68
2023-01-23T17:13:35.893Z,60.66
2023-01-23T17:16:31.315Z,60.09
2023-01-23T17:19:30.776Z,57.84
2023-01-23T17:22:24.936Z,57.64
2023-01-23T17:25:20.372Z,59.22
2023-01-23T17:28:11.155Z,62.75
2023-01-23T17:30:48.286Z,65.23
2023-01-23T17:33:42.665Z,66.36
2023-01-23T17:36:36.539Z,67.04
2023-01-23T17:39:25.804Z,66.96
2023-01-23T17:42:10.799Z,66.89
2023-01-23T17:45:06.707Z,67.01
2023-01-23T17:47:42.760Z,67.46
2023-01-23T17:50:27.208Z,67.55
2023-01-23T17:52:59.955Z,67.62
2023-01-23T17:55:54.123Z,67.55
2023-01-23T17:58:47.066Z,67.43
2023-01-23T18:01:34.310Z,67.32
2023-01-23T18:04:21.326Z,67.43
2023-01-23T18:07:16.781Z,67.58
2023-01-23T18:10:12.823Z,67.58
2023-01-23T18:13:21.616Z,67.43
2023-01-23T18:16:20.268Z,67.26
2023-01-23T18:19:18.401Z,67.36
2023-01-23T18:22:14.481Z,67.46
2023-01-23T18:25:14.164Z,67.58
2023-01-23T18:28:06.438Z,67.56
2023-01-23T18:31:00.525Z,67.66
2023-01-23T18:34:03.123Z,67.63
2023-01-23T18:37:00.904Z,67.53
2023-01-23T18:40:00.424Z,67.43
2023-01-23T18:42:46.144Z,67.40
2023-01-23T18:45:28.074Z,67.51
2023-01-23T18:48:25.919Z,67.12
2023-01-23T18:51:33.162Z,66.85
2023-01-23T18:54:26.737Z,66.96
2023-01-23T18:57:31.411Z,66.90
2023-01-23T19:00:24.210Z,66.61
2023-01-23T19:03:12.190Z,66.27
2023-01-23T19:05:45.476Z,66.07
2023-01-23T19:08:39.120Z,65.92
2023-01-23T19:11:33.556Z,65.57
2023-01-23T19:14:51.356Z,65.60
2023-01-23T19:17:52.593Z,65.56
2023-01-23T19:20:45.727Z,65.33
2023-01-23T19:23:33.935Z,65.05
2023-01-23T19:26:15.116Z,65.03
2023-01-23T19:29:21.091Z,65.06
2023-01-23T19:32:12.234Z,65.01
2023-01-23T19:35:13.781Z,65.25
2023-01-23T19:38:00.467Z,65.50
2023-01-23T19:40:53.438Z,65.82
2023-01-23T19:43:44.654Z,66.17
2023-01-23T19:46:21.310Z,66.38
2023-01-23T19:49:06.802Z,66.60
2023-01-23T19:51:49.589Z,66.75
2023-01-23T19:54:42.311Z,66.91
2023-01-23T19:57:35.076Z,67.12
2023-01-23T20:00:29.669Z,67.40
2023-01-23T20:03:22.456Z,67.72
2023-01-23T20:06:00.181Z,68.13
2023-01-23T20:08:40.108Z,68.41
2023-01-23T20:11:16.128Z,68.71
2023-01-23T20:13:52.024Z,69.02
2023-01-23T20:16:45.693Z,69.27
2023-01-23T20:19:39.746Z,69.48
2023-01-23T20:22:19.328Z,69.53
2023-01-23T20:25:05.011Z,69.38
2023-01-23T20:27:50.744Z,69.27
2023-01-23T20:30:43.561Z,69.18
2023-01-23T20:33:37.007Z,69.06
2023-01-23T20:36:29.917Z,68.93
2023-01-23T20:39:16.642Z,68.81
2023-01-23T20:42:02.020Z,68.73
2023-01-23T20:44:54.852Z,68.82
2023-01-23T20:47:51.238Z,68.97
2023-01-23T20:50:31.455Z,68.95
2023-01-23T20:53:34.241Z,68.99
2023-01-23T20:56:20.009Z,69.01
2023-01-23T20:59:25.236Z,68.88
2023-01-23T21:02:25.831Z,68.79
2023-01-23T21:05:19.452Z,68.66
2023-01-23T21:08:09.777Z,68.58
2023-01-23T21:10:56.425Z,68.48
2023-01-23T21:13:54.647Z,68.46
2023-01-23T21:16:45.411Z,68.56
2023-01-23T21:19:49.286Z,69.07
2023-01-23T21:22:42.119Z,69.36
2023-01-23T21:25:15.127Z,69.23
2023-01-23T21:28:09.757Z,69.29
2023-01-23T21:30:54.297Z,69.45
2023-01-23T21:33:47.618Z,69.49
2023-01-23T21:36:41.919Z,69.66
2023-01-23T21:39:35.368Z,69.87
2023-01-23T21:42:29.350Z,70.01
2023-01-23T21:45:14.876Z,70.41
2023-01-23T21:48:08.245Z,70.31
2023-01-23T21:51:08.739Z,70.63
2023-01-23T21:54:01.702Z,70.73
2023-01-23T21:56:47.465Z,71.10
2023-01-23T21:59:40.170Z,71.19
2023-01-23T22:02:35.678Z,71.87
2023-01-23T22:05:12.741Z,71.96
2023-01-23T22:08:07.070Z,72.34
2023-01-23T22:11:00.484Z,73.30
2023-01-23T22:13:53.342Z,70.18
2023-01-23T22:16:49.756Z,69.32
2023-01-23T22:19:36.390Z,69.23
2023-01-23T22:22:28.323Z,69.25
2023-01-23T22:25:22.097Z,69.72
2023-01-23T22:28:09.123Z,70.11
2023-01-23T22:31:08.074Z,70.56
2023-01-23T22:34:00.891Z,70.93
2023-01-23T22:36:43.681Z,71.43
2023-01-23T22:39:30.434Z,71.65
2023-01-23T22:42:23.206Z,71.77
2023-01-23T22:45:16.354Z,71.98
2023-01-23T22:48:09.610Z,72.29
2023-01-23T22:50:55.415Z,73.00
2023-01-23T22:54:08.806Z,73.46
2023-01-23T22:57:00.694Z,73.90
2023-01-23T22:59:33.546Z,73.99
2023-01-23T23:02:26.226Z,73.94
2023-01-23T23:05:19.592Z,74.09
2023-01-23T23:08:13.714Z,73.81
2023-01-23T23:11:08.469Z,73.82
2023-01-23T23:14:03.283Z,74.16
2023-01-23T23:16:48.722Z,74.21
2023-01-23T23:19:41.518Z,74.17
2023-01-23T23:22:34.742Z,74.59
2023-01-23T23:25:20.795Z,74.70
2023-01-23T23:28:13.843Z,74.82
2023-01-23T23:31:07.071Z,74.76
2023-01-23T23:33:40.596Z,74.91
2023-01-23T23:36:33.273Z,75.22
2023-01-23T23:39:14.973Z,75.35
2023-01-23T23:42:06.592Z,75.28
2023-01-23T23:44:59.585Z,75.08
2023-01-23T23:47:46.140Z,75.29
2023-01-23T23:50:39.077Z,75.55
2023-01-23T23:53:32.155Z,75.61
2023-01-23T23:56:23.175Z,75.54
2023-01-23T23:59:18.148Z,75.41
